createdAt,value
2022-10-29T04:00:34.965Z,11.40
2022-10-29T04:11:39.632Z,7.40
2022-10-29T04:33:39.414Z,7.80
2022-10-29T04:44:39.259Z,7.50
2022-10-29T04:55:39.139Z,7.20
2022-10-29T05:06:39.012Z,6.40
2022-10-29T05:17:38.905Z,6.00
2022-10-29T05:28:38.783Z,6.70
2022-10-29T05:39:38.640Z,8.80
2022-10-29T05:50:38.524Z,7.10
2022-10-29T06:01:38.497Z,6.00
2022-10-29T06:12:38.273Z,6.20
2022-10-29T06:23:38.175Z,5.00
2022-10-29T06:34:38.025Z,6.70
2022-10-29T06:45:37.900Z,5.30
2022-10-29T06:56:37.789Z,5.30
2022-10-29T07:07:37.651Z,5.40
2022-10-29T07:18:37.533Z,5.20
2022-10-29T07:29:37.422Z,4.60
2022-10-29T07:40:37.296Z,6.30
2022-10-29T07:51:37.535Z,6.00
2022-10-29T08:02:37.038Z,4.40
2022-10-29T08:13:36.928Z,4.90
2022-10-29T08:24:36.787Z,4.90
2022-10-29T08:35:36.669Z,4.50
2022-10-29T08:46:36.548Z,4.70
2022-10-29T08:57:36.408Z,4.90
2022-10-29T09:08:36.286Z,4.70
2022-10-29T09:19:36.157Z,4.50
2022-10-29T09:30:36.029Z,6.70
2022-10-29T09:41:35.941Z,4.50
2022-10-29T09:52:35.786Z,5.00
2022-10-29T10:03:35.656Z,4.30
2022-10-29T10:14:35.530Z,4.30
2022-10-29T10:25:35.508Z,3.10
2022-10-29T10:36:35.299Z,4.10
2022-10-29T10:47:35.165Z,4.00
2022-10-29T10:58:35.037Z,4.90
2022-10-29T11:09:34.927Z,4.70
2022-10-29T11:20:34.788Z,3.10
2022-10-29T11:31:34.667Z,4.40
2022-10-29T11:42:34.583Z,4.60
2022-10-29T11:53:35.406Z,4.10
2022-10-29T12:04:34.288Z,3.90
2022-10-29T12:15:34.170Z,4.30
2022-10-29T12:26:34.038Z,4.40
2022-10-29T12:37:33.913Z,3.50
2022-10-29T12:48:33.778Z,4.00
2022-10-29T12:59:33.647Z,4.50
2022-10-29T13:10:33.521Z,4.40
2022-10-29T13:21:33.396Z,3.50
2022-10-29T13:32:33.369Z,4.30
2022-10-29T13:43:33.203Z,5.30
2022-10-29T13:54:33.074Z,3.50
2022-10-29T14:05:32.896Z,4.00
2022-10-29T14:16:32.931Z,4.50
2022-10-29T14:27:32.641Z,5.60
2022-10-29T14:38:32.514Z,4.80
2022-10-29T14:49:32.475Z,4.60
2022-10-29T15:00:32.268Z,3.60
2022-10-29T15:11:32.137Z,3.50
2022-10-29T15:22:32.011Z,4.20
2022-10-29T15:33:31.892Z,6.20
2022-10-29T15:44:31.783Z,3.90
2022-10-29T15:55:31.677Z,4.60
2022-10-29T16:06:31.514Z,4.70
2022-10-29T16:17:31.386Z,5.10
2022-10-29T16:28:31.273Z,5.00
2022-10-29T16:39:31.148Z,12.10
2022-10-29T16:50:31.274Z,6.40
2022-10-29T17:01:30.911Z,5.90
2022-10-29T17:12:30.774Z,5.10
2022-10-29T17:23:30.667Z,6.10
2022-10-29T17:34:30.565Z,7.10
2022-10-29T17:45:30.407Z,7.70
2022-10-29T17:56:30.289Z,7.20
2022-10-29T18:07:30.148Z,8.50
2022-10-29T18:18:34.796Z,6.80
2022-10-29T18:29:29.908Z,6.20
2022-10-29T18:40:29.773Z,10.30
2022-10-29T18:51:29.670Z,9.00
2022-10-29T19:02:29.601Z,8.00
2022-10-29T19:13:29.403Z,9.60
2022-10-29T19:24:29.276Z,9.40
2022-10-29T19:35:29.148Z,7.30
2022-10-29T19:46:29.022Z,7.20
2022-10-29T19:57:28.906Z,9.10
2022-10-29T20:08:28.775Z,9.90
2022-10-29T20:19:28.643Z,8.40
2022-10-29T20:30:28.545Z,7.60
2022-10-29T20:41:28.421Z,11.10
2022-10-29T20:52:28.276Z,10.00
